»·PEaware :: VOI15 KSAN-KSNA

VOI15 :: KSAN-KSNA

FLIGHT INFORMATION

Flight Status: Arrived
Operator: Volaris
More flights by this operator :: More flights under this callsign
Pilot: William H. (1753)
Aircraft: AIRBUS A320
(A320)
More flights by this aircraft type
Origin: KSAN San Diego Intl-Lindbergh
United States
Destination: KSNA John Wayne-Orange Co
United States
More flights between these airports :: More routes between these airports
Route: PEBLE6 SLI
File this flight plan on PilotEdge
Remarks: PBN / A1B1C1D1O1S1 NAV / RNVD1E2A1 DAT / VM DOF / 171201 REG / MCIAF CODE / 9XNCNN OPR / VOI RVR / 200 RMK / TCAS SIF
Altitude:
(Current/Filed)
12,000ft
Speed:
(Current/Filed)
315kts
Departed: 01-Dec-17 03:22 PM
Arrived: 01-Dec-17 03:54 PM
Distance/Time
Traveled:
66nm/0:32
Distance/Time
To Go:
Arrived

Flight Plot

Page will automatically refresh every two minutes.


Map Options




Map Legend


Flown Route
Filed Route
Departure Airport
Arrival Airport
Navaid (VOR, NDB)
Fix

Horizontal Profiles

Position Reports

Time Latitude Longitude Heading Altitude Ground
Speed
01-Dec-17 14:55 32.732460 -117.200728 248 19ft 0kts
01-Dec-17 14:56 32.732460 -117.200728 248 19ft 0kts
01-Dec-17 14:57 32.732460 -117.200728 248 19ft 0kts
01-Dec-17 14:58 32.732460 -117.200728 248 19ft 0kts
01-Dec-17 14:59 32.732460 -117.200728 248 19ft 0kts
01-Dec-17 15:00 32.732460 -117.200728 248 19ft 0kts
01-Dec-17 15:01 32.732460 -117.200728 248 19ft 0kts
01-Dec-17 15:02 32.732460 -117.200728 248 19ft 0kts
01-Dec-17 15:03 32.732460 -117.200728 248 19ft 0kts
01-Dec-17 15:04 32.732460 -117.200727 248 19ft 0kts
01-Dec-17 15:05 32.732460 -117.200727 248 19ft 0kts
01-Dec-17 15:06 32.732460 -117.200727 248 19ft 0kts
01-Dec-17 15:07 32.732460 -117.200727 248 19ft 0kts
01-Dec-17 15:08 32.732460 -117.200727 248 19ft 0kts
01-Dec-17 15:09 32.732592 -117.200565 226 19ft 2kts
01-Dec-17 15:10 32.732875 -117.200207 226 19ft 2kts
01-Dec-17 15:11 32.733041 -117.199975 293 19ft 0kts
01-Dec-17 15:12 32.732919 -117.199941 13 19ft 0kts
01-Dec-17 15:13 32.732911 -117.199944 13 19ft 0kts
01-Dec-17 15:14 32.732911 -117.199944 13 19ft 0kts
01-Dec-17 15:15 32.733204 -117.199864 12 19ft 0kts
01-Dec-17 15:16 32.733263 -117.199848 12 19ft 0kts
01-Dec-17 15:17 32.734154 -117.199621 12 19ft 15kts
01-Dec-17 15:18 32.734342 -117.197194 105 19ft 20kts
01-Dec-17 15:19 32.733582 -117.193996 106 22ft 2kts
01-Dec-17 15:20 32.733303 -117.192865 106 22ft 1kts
01-Dec-17 15:21 32.733015 -117.191728 106 22ft 9kts
01-Dec-17 15:22 32.732341 -117.189043 106 21ft 17kts
01-Dec-17 15:23 32.731313 -117.184672 109 19ft 23kts
01-Dec-17 15:24 32.730624 -117.181778 106 19ft 16kts
01-Dec-17 15:25 32.729810 -117.178422 106 22ft 15kts
01-Dec-17 15:26 32.729773 -117.175917 21 26ft 4kts
01-Dec-17 15:27 32.730545 -117.177252 286 26ft 45kts
01-Dec-17 15:28 32.742189 -117.211759 306 1652ft 219kts
01-Dec-17 15:29 32.772995 -117.264480 305 5789ft 267kts
01-Dec-17 15:30 32.806224 -117.322780 305 9177ft 285kts
01-Dec-17 15:31 32.841172 -117.383795 305 10022ft 290kts
01-Dec-17 15:32 32.876316 -117.444906 305 10026ft 290kts
01-Dec-17 15:33 32.921788 -117.490396 330 10047ft 288kts
01-Dec-17 15:34 32.977134 -117.528840 330 10049ft 288kts
01-Dec-17 15:35 33.021968 -117.579605 305 10048ft 286kts
01-Dec-17 15:36 33.062048 -117.647517 305 10051ft 285kts
01-Dec-17 15:37 33.099187 -117.708889 307 10051ft 284kts
01-Dec-17 15:38 33.132325 -117.759782 306 10051ft 285kts
01-Dec-17 15:39 33.190265 -117.836738 336 10041ft 289kts
01-Dec-17 15:40 33.255067 -117.860950 341 10040ft 267kts
01-Dec-17 15:41 33.294696 -117.875326 341 9709ft 271kts
01-Dec-17 15:42 33.330453 -117.888463 341 8640ft 283kts
01-Dec-17 15:43 33.379329 -117.906777 341 7343ft 280kts
01-Dec-17 15:44 33.428661 -117.925769 341 7082ft 276kts
01-Dec-17 15:45 33.474976 -117.943831 341 7078ft 277kts
01-Dec-17 15:46 33.519597 -117.961066 341 7080ft 272kts
01-Dec-17 15:47 33.561104 -117.976854 341 6746ft 252kts
01-Dec-17 15:48 33.605165 -117.993339 341 6282ft 237kts
01-Dec-17 15:49 33.643851 -118.006517 357 5389ft 232kts
01-Dec-17 15:50 33.675450 -117.994463 22 4870ft 230kts
01-Dec-17 15:51 33.694587 -117.981650 37 4455ft 229kts
01-Dec-17 15:52 33.710788 -117.964440 49 3768ft 232kts
01-Dec-17 15:53 33.726239 -117.936078 60 3019ft 228kts
01-Dec-17 15:54 33.734029 -117.902455 82 2270ft 223kts
01-Dec-17 15:55 33.736902 -117.868655 90 1757ft 198kts
01-Dec-17 15:56 33.722070 -117.844133 179 1214ft 177kts
01-Dec-17 15:57 33.700313 -117.854043 209 483ft 161kts
01-Dec-17 15:58 33.682056 -117.864846 208 77ft 133kts
01-Dec-17 15:59 33.671996 -117.871190 207 55ft 31kts
01-Dec-17 16:00 33.669611 -117.872098 161 59ft 12kts
01-Dec-17 16:01 33.670179 -117.869817 41 55ft 24kts
01-Dec-17 16:02 33.673471 -117.866907 30 52ft 29kts
01-Dec-17 16:03 33.675466 -117.865098 117 49ft 4kts
01-Dec-17 16:04 33.675371 -117.864882 117 49ft 0kts
01-Dec-17 16:05 33.675371 -117.864882 117 49ft 0kts
01-Dec-17 16:06 33.675371 -117.864882 117 49ft 0kts
01-Dec-17 16:07 33.675371 -117.864882 117 49ft 0kts
01-Dec-17 16:08 33.675371 -117.864882 117 49ft 0kts
01-Dec-17 16:09 33.675371 -117.864882 117 49ft 0kts
01-Dec-17 16:10 33.675371 -117.864882 117 49ft 0kts
01-Dec-17 16:11 33.675371 -117.864882 117 49ft 0kts
01-Dec-17 16:12 33.675371 -117.864882 117 49ft 0kts
01-Dec-17 16:13 33.675371 -117.864882 117 49ft 0kts
01-Dec-17 16:14 33.675371 -117.864882 117 49ft 0kts

Navigation Log

Ident Type
1. KSAN Airport
2. MELDY Fix
3. PEBLE Fix
4. SLI Navaid
5. KSNA Airport